createdAt,value
2017-07-16T00:01:25.497Z,99804.09
2017-07-16T00:03:53.047Z,99801.92
2017-07-16T00:06:20.567Z,99806.70
2017-07-16T00:08:48.115Z,99806.56
2017-07-16T00:11:15.634Z,99801.27
2017-07-16T00:13:43.244Z,99802.79
2017-07-16T00:16:10.760Z,99801.56
2017-07-16T00:18:38.273Z,99799.94
2017-07-16T00:21:05.821Z,99807.12
2017-07-16T00:23:33.329Z,99807.83
2017-07-16T00:26:00.884Z,99814.61
2017-07-16T00:28:28.413Z,99809.30
2017-07-16T00:30:56.002Z,99810.92
2017-07-16T00:33:23.529Z,99807.67
2017-07-16T00:35:51.077Z,99804.55
2017-07-16T00:38:18.589Z,99806.99
2017-07-16T00:40:46.157Z,99808.34
2017-07-16T00:43:13.700Z,99809.02
2017-07-16T00:45:41.244Z,99803.59
2017-07-16T00:48:08.757Z,99812.14
2017-07-16T00:50:36.303Z,99819.88
2017-07-16T00:53:03.817Z,99818.39
2017-07-16T00:55:31.364Z,99818.39
2017-07-16T00:57:58.884Z,99816.21
2017-07-16T01:00:26.443Z,99821.09
2017-07-16T01:02:53.953Z,99821.40
2017-07-16T01:05:21.530Z,99820.04
2017-07-16T01:07:49.041Z,99818.00
2017-07-16T01:10:16.555Z,99813.28
2017-07-16T01:12:44.119Z,99816.64
2017-07-16T01:15:11.666Z,99806.74
2017-07-16T01:17:39.215Z,99810.57
2017-07-16T01:20:06.858Z,99804.73
2017-07-16T01:22:34.415Z,99805.14
2017-07-16T01:25:01.937Z,99796.73
2017-07-16T01:27:29.497Z,99803.23
2017-07-16T01:29:57.026Z,99798.62
2017-07-16T01:32:24.570Z,99797.16
2017-07-16T01:34:52.090Z,99788.75
2017-07-16T01:37:19.707Z,99790.78
2017-07-16T01:39:47.221Z,99795.13
2017-07-16T01:42:14.789Z,99796.89
2017-07-16T01:44:42.311Z,99797.59
2017-07-16T01:47:09.863Z,99786.88
2017-07-16T01:49:37.382Z,99795.98
2017-07-16T01:52:04.930Z,99796.64
2017-07-16T01:54:32.450Z,99795.69
2017-07-16T01:56:59.967Z,99801.28
2017-07-16T01:59:27.525Z,99802.06
2017-07-16T02:01:55.061Z,99801.95
2017-07-16T02:04:22.610Z,99802.37
2017-07-16T02:06:50.123Z,99806.58
2017-07-16T02:09:17.669Z,99813.91
2017-07-16T02:11:45.222Z,99803.03
2017-07-16T02:14:12.783Z,99803.73
2017-07-16T02:16:40.341Z,99792.48
2017-07-16T02:19:07.894Z,99795.06
2017-07-16T02:21:35.419Z,99798.45
2017-07-16T02:24:02.966Z,99788.55
2017-07-16T02:26:30.527Z,99796.03
2017-07-16T02:28:58.060Z,99791.41
2017-07-16T02:31:25.569Z,99793.20
2017-07-16T02:33:53.159Z,99790.48
2017-07-16T02:36:20.711Z,99791.03
2017-07-16T02:38:48.265Z,99791.98
2017-07-16T02:41:15.781Z,99789.00
2017-07-16T02:43:43.334Z,99794.66
2017-07-16T02:46:10.851Z,99789.67
2017-07-16T02:48:38.380Z,99792.92
2017-07-16T02:51:05.934Z,99797.29
2017-07-16T02:53:33.449Z,99796.23
2017-07-16T02:56:01.001Z,99795.66
2017-07-16T02:58:28.514Z,99796.36
2017-07-16T03:00:56.081Z,99795.94
2017-07-16T03:03:23.602Z,99806.25
2017-07-16T03:05:51.163Z,99797.84
2017-07-16T03:08:18.685Z,99801.37
2017-07-16T03:10:46.226Z,99802.04
2017-07-16T03:13:13.737Z,99802.17
2017-07-16T03:15:41.278Z,99811.53
2017-07-16T03:18:08.826Z,99805.05
2017-07-16T03:20:36.383Z,99808.30
2017-07-16T03:23:03.903Z,99813.61
2017-07-16T03:25:37.442Z,99806.67
2017-07-16T03:28:05.005Z,99810.61
2017-07-16T03:30:32.558Z,99816.70
2017-07-16T03:33:00.122Z,99826.20
2017-07-16T03:35:27.635Z,99819.96
2017-07-16T03:37:55.181Z,99818.61
2017-07-16T03:40:22.702Z,99820.50
2017-07-16T03:42:50.256Z,99822.27
2017-07-16T03:45:17.774Z,99818.44
2017-07-16T03:47:45.383Z,99825.09
2017-07-16T03:50:12.895Z,99821.56
2017-07-16T03:52:40.441Z,99824.98
2017-07-16T03:55:07.952Z,99819.69
2017-07-16T03:57:35.497Z,99819.28
2017-07-16T04:00:03.008Z,99817.79
2017-07-16T04:02:30.637Z,99820.22
2017-07-16T04:04:58.199Z,99819.28
2017-07-16T04:07:25.745Z,99807.38
2017-07-16T04:09:53.271Z,99813.98
2017-07-16T04:12:20.825Z,99813.98
2017-07-16T04:14:48.346Z,99812.39
2017-07-16T04:17:15.912Z,99808.99
2017-07-16T04:19:43.453Z,99807.52
2017-07-16T04:22:11.021Z,99808.61
2017-07-16T04:24:38.533Z,99810.77
2017-07-16T04:27:06.052Z,99809.72
2017-07-16T04:29:33.605Z,99809.44
2017-07-16T04:32:01.133Z,99811.09
2017-07-16T04:34:28.710Z,99821.38
2017-07-16T04:36:56.221Z,99815.14
2017-07-16T04:39:23.765Z,99827.21
2017-07-16T04:41:51.289Z,99823.69
2017-07-16T04:44:18.844Z,99822.49
2017-07-16T04:46:46.363Z,99817.45
2017-07-16T04:49:13.913Z,99822.87
2017-07-16T04:51:41.444Z,99819.78
2017-07-16T04:54:09.000Z,99820.32
2017-07-16T04:56:36.519Z,99828.70
2017-07-16T04:59:04.078Z,99833.58
2017-07-16T05:01:31.594Z,99833.86
2017-07-16T05:03:59.140Z,99836.98
2017-07-16T05:06:26.667Z,99843.22
2017-07-16T05:08:54.215Z,99843.05
2017-07-16T05:11:21.780Z,99850.40
2017-07-16T05:13:49.361Z,99850.25
2017-07-16T05:16:16.879Z,99849.03
2017-07-16T05:18:44.402Z,99847.27
2017-07-16T05:21:11.945Z,99858.69
2017-07-16T05:23:39.466Z,99854.06
2017-07-16T05:26:07.056Z,99851.76
2017-07-16T05:28:34.615Z,99844.73
2017-07-16T05:31:02.281Z,99846.36
2017-07-16T05:33:29.802Z,99845.70
2017-07-16T05:35:57.341Z,99841.36
2017-07-16T05:38:24.868Z,99849.90
2017-07-16T05:40:52.519Z,99848.27
2017-07-16T05:43:20.052Z,99840.84
2017-07-16T05:45:47.603Z,99839.08
2017-07-16T05:48:15.122Z,99846.26
2017-07-16T05:50:42.674Z,99839.89
2017-07-16T05:53:10.233Z,99837.18
2017-07-16T05:55:37.795Z,99843.95
2017-07-16T05:58:05.314Z,99851.27
2017-07-16T06:00:32.861Z,99853.69
2017-07-16T06:03:00.450Z,99858.57
2017-07-16T06:05:28.010Z,99856.27
2017-07-16T06:07:55.529Z,99864.13
2017-07-16T06:10:23.049Z,99869.14
2017-07-16T06:12:50.596Z,99861.28
2017-07-16T06:15:18.150Z,99861.00
2017-07-16T06:17:45.701Z,99862.52
2017-07-16T06:20:13.224Z,99862.93
2017-07-16T06:22:40.760Z,99859.92
2017-07-16T06:25:08.272Z,99865.64
2017-07-16T06:27:35.829Z,99866.42
2017-07-16T06:30:03.342Z,99863.99
2017-07-16T06:32:30.964Z,99877.66
2017-07-16T06:34:58.479Z,99878.23
2017-07-16T06:37:26.037Z,99880.94
2017-07-16T06:39:53.559Z,99887.97
2017-07-16T06:42:21.202Z,99885.01
2017-07-16T06:44:48.717Z,99890.97
2017-07-16T06:47:16.265Z,99895.45
2017-07-16T06:49:43.791Z,99892.20
2017-07-16T06:52:11.351Z,99885.80
2017-07-16T06:54:38.899Z,99887.72
2017-07-16T06:57:06.420Z,99886.48
2017-07-16T06:59:33.970Z,99892.72
2017-07-16T07:02:01.484Z,99890.94
2017-07-16T07:04:29.038Z,99888.21
2017-07-16T07:06:56.569Z,99893.01
2017-07-16T07:09:24.153Z,99894.11
2017-07-16T07:11:51.678Z,99895.37
2017-07-16T07:14:19.226Z,99891.55
2017-07-16T07:16:46.742Z,99893.58
2017-07-16T07:19:14.296Z,99900.48
2017-07-16T07:21:41.822Z,99907.50
2017-07-16T07:24:09.408Z,99896.77
2017-07-16T07:26:36.937Z,99897.18
2017-07-16T07:29:04.482Z,99897.59
2017-07-16T07:31:31.992Z,99895.52
2017-07-16T07:33:59.557Z,99889.71
2017-07-16T07:36:27.077Z,99896.75
2017-07-16T07:38:54.726Z,99893.25
2017-07-16T07:41:22.248Z,99895.94
2017-07-16T07:43:49.762Z,99892.55
2017-07-16T07:46:17.315Z,99889.97
2017-07-16T07:48:44.823Z,99886.59
2017-07-16T07:51:12.369Z,99887.55
2017-07-16T07:53:39.893Z,99886.04
2017-07-16T07:56:07.453Z,99883.87
2017-07-16T07:58:34.981Z,99882.36
2017-07-16T08:01:02.535Z,99878.95
2017-07-16T08:03:30.052Z,99879.34
2017-07-16T08:05:57.601Z,99880.42
2017-07-16T08:08:25.119Z,99878.00
2017-07-16T08:10:52.666Z,99878.80
2017-07-16T08:13:20.186Z,99881.63
2017-07-16T08:15:47.742Z,99876.75
2017-07-16T08:18:15.269Z,99884.63
2017-07-16T08:20:42.820Z,99880.72
2017-07-16T08:23:10.345Z,99887.94
2017-07-16T08:25:38.274Z,99885.63
2017-07-16T08:28:05.804Z,99886.80
2017-07-16T08:30:33.321Z,99886.39
2017-07-16T08:33:00.872Z,99891.55
2017-07-16T08:35:28.414Z,99886.10
2017-07-16T08:37:55.962Z,99883.38
2017-07-16T08:40:23.486Z,99884.37
2017-07-16T08:42:51.034Z,99884.91
2017-07-16T08:45:18.558Z,99888.81
2017-07-16T08:47:46.096Z,99874.16
2017-07-16T08:50:13.605Z,99881.08
2017-07-16T08:52:41.158Z,99873.36
2017-07-16T08:55:08.673Z,99882.83
2017-07-16T08:57:36.228Z,99879.97
2017-07-16T09:00:03.748Z,99880.50
2017-07-16T09:02:31.298Z,99879.85
2017-07-16T09:04:58.814Z,99878.91
2017-07-16T09:07:26.359Z,99875.39
2017-07-16T09:09:53.874Z,99879.98
2017-07-16T09:12:21.423Z,99874.58
2017-07-16T09:14:48.938Z,99867.41
2017-07-16T09:17:16.503Z,99863.05
2017-07-16T09:19:44.011Z,99860.90
2017-07-16T09:22:11.515Z,99859.00
2017-07-16T09:24:39.063Z,99861.83
2017-07-16T09:27:06.577Z,99858.56
2017-07-16T09:29:34.133Z,99866.33
2017-07-16T09:32:01.641Z,99857.77
2017-07-16T09:34:29.191Z,99856.13
2017-07-16T09:36:56.710Z,99854.38
2017-07-16T09:39:24.256Z,99853.31
2017-07-16T09:41:51.780Z,99856.13
2017-07-16T09:44:19.351Z,99851.12
2017-07-16T09:46:46.991Z,99837.45
2017-07-16T09:49:14.570Z,99846.23
2017-07-16T09:51:42.086Z,99835.92
2017-07-16T09:54:09.636Z,99843.39
2017-07-16T09:56:37.155Z,99840.68
2017-07-16T09:59:04.711Z,99838.06
2017-07-16T10:01:32.226Z,99840.16
2017-07-16T10:03:59.781Z,99841.37
2017-07-16T10:06:27.300Z,99835.79
2017-07-16T10:08:54.827Z,99833.44
2017-07-16T10:11:22.371Z,99830.73
2017-07-16T10:13:49.888Z,99826.50
2017-07-16T10:16:17.442Z,99828.02
2017-07-16T10:18:44.967Z,99829.38
2017-07-16T10:21:12.521Z,99824.22
2017-07-16T10:23:40.039Z,99822.05
2017-07-16T10:26:07.588Z,99819.90
2017-07-16T10:28:35.114Z,99821.14
2017-07-16T10:31:02.661Z,99818.86
2017-07-16T10:33:30.186Z,99817.23
2017-07-16T10:35:57.746Z,99815.06
2017-07-16T10:38:25.269Z,99813.46
2017-07-16T10:40:52.818Z,99815.90
2017-07-16T10:43:20.337Z,99814.67
2017-07-16T10:45:47.885Z,99816.03
2017-07-16T10:48:15.407Z,99816.03
2017-07-16T10:50:42.959Z,99826.23
2017-07-16T10:53:10.485Z,99813.20
2017-07-16T10:55:38.048Z,99811.31
2017-07-16T10:58:05.567Z,99805.48
2017-07-16T11:00:33.082Z,99801.00
2017-07-16T11:03:00.631Z,99800.87
2017-07-16T11:05:28.144Z,99794.63
2017-07-16T11:07:55.693Z,99796.94
2017-07-16T11:10:23.213Z,99787.03
2017-07-16T11:12:50.762Z,99787.44
2017-07-16T11:15:18.286Z,99790.16
2017-07-16T11:17:45.825Z,99796.12
2017-07-16T11:20:13.345Z,99787.98
2017-07-16T11:22:40.903Z,99777.12
2017-07-16T11:25:08.419Z,99775.78
2017-07-16T11:27:35.962Z,99776.72
2017-07-16T11:30:03.479Z,99771.30
2017-07-16T11:32:31.022Z,99779.84
2017-07-16T11:34:58.542Z,99768.17
2017-07-16T11:37:26.091Z,99771.30
2017-07-16T11:39:53.618Z,99766.69
2017-07-16T11:42:21.170Z,99766.41
2017-07-16T11:44:48.819Z,99767.23
2017-07-16T11:47:16.344Z,99761.80
2017-07-16T11:49:43.897Z,99768.59
2017-07-16T11:52:11.419Z,99758.69
2017-07-16T11:54:38.957Z,99764.11
2017-07-16T11:57:06.481Z,99767.36
2017-07-16T11:59:34.040Z,99763.70
2017-07-16T12:02:01.555Z,99766.58
2017-07-16T12:04:29.101Z,99760.58
2017-07-16T12:06:56.618Z,99760.20
2017-07-16T12:09:24.161Z,99755.73
2017-07-16T12:11:51.676Z,99749.36
2017-07-16T12:14:19.213Z,99748.00
2017-07-16T12:16:46.724Z,99753.80
2017-07-16T12:19:14.283Z,99752.20
2017-07-16T12:21:41.801Z,99752.45
2017-07-16T12:24:09.350Z,99750.71
2017-07-16T12:26:36.860Z,99748.00
2017-07-16T12:29:04.412Z,99753.02
2017-07-16T12:31:31.930Z,99745.66
2017-07-16T12:33:59.504Z,99749.36
2017-07-16T12:36:27.021Z,99753.67
2017-07-16T12:38:54.646Z,99749.19
2017-07-16T12:41:22.213Z,99749.59
2017-07-16T12:43:49.729Z,99750.95
2017-07-16T12:46:17.283Z,99750.82
2017-07-16T12:48:44.846Z,99753.53
2017-07-16T12:51:12.394Z,99749.87
2017-07-16T12:53:39.910Z,99745.40
2017-07-16T12:56:07.461Z,99742.55
2017-07-16T12:58:34.975Z,99746.75
2017-07-16T13:01:02.527Z,99751.64
2017-07-16T13:03:30.049Z,99747.56
2017-07-16T13:05:57.591Z,99734.41
2017-07-16T13:08:25.105Z,99742.96
2017-07-16T13:10:52.666Z,99734.41
2017-07-16T13:13:20.180Z,99737.53
2017-07-16T13:15:47.720Z,99736.72
2017-07-16T13:18:15.242Z,99739.27
2017-07-16T13:20:42.790Z,99736.02
2017-07-16T13:23:10.306Z,99735.61
2017-07-16T13:25:37.820Z,99733.84
2017-07-16T13:28:05.376Z,99732.89
2017-07-16T13:30:32.902Z,99726.92
2017-07-16T13:33:00.450Z,99730.05
2017-07-16T13:35:27.964Z,99719.33
2017-07-16T13:37:55.515Z,99716.89
2017-07-16T13:40:23.035Z,99721.37
2017-07-16T13:42:50.588Z,99715.12
2017-07-16T13:45:18.105Z,99707.27
2017-07-16T13:47:45.652Z,99710.38
2017-07-16T13:50:13.166Z,99702.25
2017-07-16T13:52:40.718Z,99704.02
2017-07-16T13:55:08.232Z,99703.84
2017-07-16T13:57:35.780Z,99701.95
2017-07-16T14:00:03.283Z,99694.22
2017-07-16T14:02:30.824Z,99692.45
2017-07-16T14:04:58.333Z,99690.55
2017-07-16T14:07:25.875Z,99685.94
2017-07-16T14:09:53.397Z,99683.06
2017-07-16T14:12:20.944Z,99687.13
2017-07-16T14:14:48.460Z,99692.02
2017-07-16T14:17:15.975Z,99679.27
2017-07-16T14:19:43.525Z,99682.39
2017-07-16T14:22:11.054Z,99680.08
2017-07-16T14:24:38.615Z,99679.54
2017-07-16T14:27:06.132Z,99672.48
2017-07-16T14:29:33.676Z,99675.06
2017-07-16T14:32:01.183Z,99674.11
2017-07-16T14:34:28.739Z,99675.17
2017-07-16T14:36:56.350Z,99678.29
2017-07-16T14:39:23.899Z,99673.27
2017-07-16T14:41:51.414Z,99667.63
2017-07-16T14:44:18.957Z,99670.35
2017-07-16T14:46:50.541Z,99670.80
2017-07-16T14:49:18.612Z,99673.18
2017-07-16T14:51:46.242Z,99671.09
2017-07-16T14:54:13.811Z,99670.85
2017-07-16T14:56:41.332Z,99666.84
2017-07-16T14:59:08.887Z,99662.81
2017-07-16T15:01:36.415Z,99665.70
2017-07-16T15:04:03.982Z,99663.02
2017-07-16T15:06:31.501Z,99660.61
2017-07-16T15:08:59.021Z,99659.42
2017-07-16T15:11:26.568Z,99655.93
2017-07-16T15:13:54.179Z,99653.25
2017-07-16T15:16:21.720Z,99651.90
2017-07-16T15:18:49.229Z,99660.72
2017-07-16T15:21:16.769Z,99649.22
2017-07-16T15:23:44.292Z,99651.93
2017-07-16T15:26:11.837Z,99643.78
2017-07-16T15:28:39.356Z,99648.91
2017-07-16T15:31:06.900Z,99643.34
2017-07-16T15:33:34.428Z,99647.97
2017-07-16T15:36:01.970Z,99644.98
2017-07-16T15:38:29.486Z,99649.05
2017-07-16T15:40:57.032Z,99645.92
2017-07-16T15:43:24.541Z,99642.67
2017-07-16T15:45:52.099Z,99643.89
2017-07-16T15:48:19.766Z,99638.97
2017-07-16T15:50:47.347Z,99636.42
2017-07-16T15:53:14.866Z,99636.56
2017-07-16T15:55:42.426Z,99633.06
2017-07-16T15:58:09.963Z,99630.08
2017-07-16T16:00:37.482Z,99625.98
2017-07-16T16:03:05.037Z,99638.05
2017-07-16T16:05:32.562Z,99633.71
2017-07-16T16:08:00.112Z,99627.50
2017-07-16T16:10:27.642Z,99629.23
2017-07-16T16:12:55.206Z,99628.28
2017-07-16T16:15:22.722Z,99628.25
2017-07-16T16:17:50.277Z,99626.21
2017-07-16T16:20:17.801Z,99624.34
2017-07-16T16:22:45.353Z,99624.20
2017-07-16T16:25:12.867Z,99623.62
2017-07-16T16:27:40.425Z,99617.83
2017-07-16T16:30:07.942Z,99624.30
2017-07-16T16:32:35.494Z,99622.95
2017-07-16T16:35:03.005Z,99626.06
2017-07-16T16:37:30.571Z,99639.64
2017-07-16T16:39:58.102Z,99634.89
2017-07-16T16:42:25.612Z,99629.46
2017-07-16T16:44:53.163Z,99622.95
2017-07-16T16:47:21.478Z,99627.80
2017-07-16T16:49:51.220Z,99625.01
2017-07-16T16:52:18.999Z,99625.28
2017-07-16T16:54:46.804Z,99616.59
2017-07-16T16:57:14.443Z,99624.29
2017-07-16T16:59:42.335Z,99618.72
2017-07-16T17:02:10.743Z,99619.63
2017-07-16T17:04:38.352Z,99617.56
2017-07-16T17:07:05.909Z,99623.27
2017-07-16T17:09:34.872Z,99619.59
2017-07-16T17:12:02.668Z,99621.87
2017-07-16T17:14:30.546Z,99621.42
2017-07-16T17:17:00.513Z,99618.84
2017-07-16T17:19:29.667Z,99617.03
2017-07-16T17:21:59.853Z,99620.85
2017-07-16T17:24:28.066Z,99618.23
2017-07-16T17:26:57.062Z,99615.92
2017-07-16T17:29:24.929Z,99616.33
2017-07-16T17:31:52.918Z,99618.13
2017-07-16T17:34:20.876Z,99613.16
2017-07-16T17:36:49.460Z,99619.05
2017-07-16T17:39:17.632Z,99617.43
2017-07-16T17:41:45.228Z,99610.15
2017-07-16T17:44:13.124Z,99622.59
2017-07-16T17:46:40.966Z,99612.53
2017-07-16T17:49:08.908Z,99616.42
2017-07-16T17:51:36.677Z,99623.17
2017-07-16T17:54:04.456Z,99618.28
2017-07-16T17:56:32.483Z,99618.91
2017-07-16T17:59:00.297Z,99619.11
2017-07-16T18:01:28.918Z,99618.28
2017-07-16T18:03:56.735Z,99616.88
2017-07-16T18:06:24.514Z,99614.11
2017-07-16T18:08:52.514Z,99612.44
2017-07-16T18:11:21.176Z,99615.16
2017-07-16T18:13:49.858Z,99620.41
2017-07-16T18:16:17.622Z,99620.67
2017-07-16T18:18:45.530Z,99613.06
2017-07-16T18:21:13.474Z,99622.98
2017-07-16T18:23:41.336Z,99624.58
2017-07-16T18:26:08.859Z,99615.16
2017-07-16T18:28:36.400Z,99615.21
2017-07-16T18:31:03.974Z,99618.51
2017-07-16T18:33:31.596Z,99621.50
2017-07-16T18:35:59.255Z,99627.27
2017-07-16T18:38:26.813Z,99626.57
2017-07-16T18:40:54.412Z,99621.23
2017-07-16T18:43:22.072Z,99624.50
2017-07-16T18:45:49.596Z,99623.91
2017-07-16T18:48:17.442Z,99631.42
2017-07-16T18:50:45.433Z,99634.59
2017-07-16T18:53:13.681Z,99630.61
2017-07-16T18:55:41.522Z,99629.61
2017-07-16T18:58:09.975Z,99630.59
2017-07-16T19:00:38.063Z,99632.46
2017-07-16T19:03:05.939Z,99630.43
2017-07-16T19:05:33.930Z,99633.59
2017-07-16T19:08:01.671Z,99625.72
2017-07-16T19:10:29.996Z,99625.58
2017-07-16T19:12:57.888Z,99626.84
2017-07-16T19:15:25.947Z,99623.98
2017-07-16T19:17:56.201Z,99631.83
2017-07-16T19:20:24.326Z,99629.44
2017-07-16T19:22:52.078Z,99628.89
2017-07-16T19:25:19.824Z,99630.66
2017-07-16T19:27:48.076Z,99641.02
2017-07-16T19:30:16.081Z,99638.81
2017-07-16T19:32:43.888Z,99637.40
2017-07-16T19:35:12.403Z,99640.72
2017-07-16T19:37:40.546Z,99636.68
2017-07-16T19:40:08.995Z,99639.30
2017-07-16T19:42:37.569Z,99639.98
2017-07-16T19:45:05.540Z,99647.19
2017-07-16T19:47:33.201Z,99650.49
2017-07-16T19:50:00.958Z,99654.47
2017-07-16T19:52:28.884Z,99654.67
2017-07-16T19:54:57.478Z,99652.34
2017-07-16T19:57:25.654Z,99654.66
2017-07-16T19:59:53.686Z,99654.11
2017-07-16T20:02:21.663Z,99658.06
2017-07-16T20:04:49.399Z,99655.98
2017-07-16T20:07:16.979Z,99655.80
2017-07-16T20:09:45.075Z,99655.48
2017-07-16T20:12:13.617Z,99646.70
2017-07-16T20:14:41.184Z,99646.83
2017-07-16T20:17:09.272Z,99642.48
2017-07-16T20:19:37.368Z,99644.79
2017-07-16T20:22:06.918Z,99649.81
2017-07-16T20:24:38.759Z,99639.54
2017-07-16T20:27:09.994Z,99644.48
2017-07-16T20:29:39.492Z,99640.25
2017-07-16T20:32:12.644Z,99646.50
2017-07-16T20:34:43.726Z,99650.18
2017-07-16T20:37:17.066Z,99649.23
2017-07-16T20:39:47.975Z,99649.81
2017-07-16T20:42:23.236Z,99645.67
2017-07-16T20:44:57.630Z,99651.06
2017-07-16T20:47:28.207Z,99649.43
2017-07-16T20:49:58.022Z,99646.38
2017-07-16T20:52:37.626Z,99650.36
2017-07-16T20:55:09.636Z,99649.52
2017-07-16T20:57:43.067Z,99649.16
2017-07-16T21:00:15.985Z,99646.41
2017-07-16T21:02:46.618Z,99646.97
2017-07-16T21:05:20.139Z,99647.30
2017-07-16T21:07:52.477Z,99649.20
2017-07-16T21:10:23.058Z,99650.17
2017-07-16T21:12:53.951Z,99646.44
2017-07-16T21:15:23.810Z,99647.53
2017-07-16T21:17:55.800Z,99646.17
2017-07-16T21:20:28.463Z,99642.20
2017-07-16T21:22:58.450Z,99646.67
2017-07-16T21:25:29.992Z,99646.84
2017-07-16T21:28:02.370Z,99645.88
2017-07-16T21:30:37.124Z,99644.47
2017-07-16T21:33:09.610Z,99649.84
2017-07-16T21:35:39.703Z,99641.05
2017-07-16T21:38:10.866Z,99644.34
2017-07-16T21:40:44.565Z,99642.86
2017-07-16T21:43:15.795Z,99645.65
2017-07-16T21:45:46.313Z,99645.65
2017-07-16T21:48:16.221Z,99640.80
2017-07-16T21:50:48.985Z,99636.09
2017-07-16T21:53:21.385Z,99641.34
2017-07-16T21:55:50.349Z,99641.44
2017-07-16T21:58:21.699Z,99641.91
2017-07-16T22:00:52.216Z,99637.93
2017-07-16T22:03:22.839Z,99635.80
2017-07-16T22:05:53.595Z,99639.91
2017-07-16T22:08:27.163Z,99636.81
2017-07-16T22:11:06.855Z,99639.99
2017-07-16T22:13:37.851Z,99643.87
2017-07-16T22:16:06.512Z,99644.02
2017-07-16T22:18:41.167Z,99639.44
2017-07-16T22:21:10.937Z,99636.39
2017-07-16T22:23:39.538Z,99639.23
2017-07-16T22:26:09.647Z,99635.77
2017-07-16T22:28:45.448Z,99634.04
2017-07-16T22:31:15.798Z,99630.30
2017-07-16T22:33:45.445Z,99635.01
2017-07-16T22:36:17.477Z,99630.94
2017-07-16T22:38:44.993Z,99638.97
2017-07-16T22:41:16.010Z,99625.47
2017-07-16T22:43:46.723Z,99630.45
2017-07-16T22:46:21.118Z,99633.27
2017-07-16T22:48:52.055Z,99637.74
2017-07-16T22:51:21.692Z,99626.87
2017-07-16T22:53:49.431Z,99629.41
2017-07-16T22:56:21.806Z,99625.24
2017-07-16T22:58:52.451Z,99617.20
2017-07-16T23:01:23.789Z,99623.98
2017-07-16T23:03:53.629Z,99625.78
2017-07-16T23:06:23.754Z,99614.80
2017-07-16T23:08:53.442Z,99618.43
2017-07-16T23:11:34.489Z,99611.41
2017-07-16T23:14:03.034Z,99618.36
2017-07-16T23:16:37.216Z,99611.27
2017-07-16T23:19:06.404Z,99612.93
2017-07-16T23:21:34.700Z,99612.49
2017-07-16T23:24:05.612Z,99612.95
2017-07-16T23:26:36.640Z,99611.80
2017-07-16T23:29:09.573Z,99605.70
2017-07-16T23:31:37.224Z,99607.05
2017-07-16T23:34:05.227Z,99602.30
2017-07-16T23:36:37.027Z,99599.78
2017-07-16T23:39:08.977Z,99593.49
2017-07-16T23:41:42.652Z,99593.38
2017-07-16T23:44:14.656Z,99589.31
2017-07-16T23:46:51.156Z,99596.09
2017-07-16T23:49:28.254Z,99590.37
2017-07-16T23:51:57.801Z,99590.41
2017-07-16T23:57:01.360Z,99593.58
2017-07-16T23:59:35.518Z,99592.77
